Time;durP1;ratioP1;P1;durP2;ratioP2;P2;SDS_P1;SDS_P2;PMS_P1;PMS_P2;Temp;Humidity;BMP_temperature;BMP_pressure;BME280_temperature;BME280_humidity;BME280_pressure;Samples;Min_cycle;Max_cycle;Signal;HPM_P1;HPM_P2
2023/12/27 00:00:34;;;;;;;4.68;2.35;;;14.30;99.90;;;;;;4591207;19;19999;-77
2023/12/27 00:02:29;;;;;;;3.53;2.33;;;14.30;99.90;;;;;;4591988;19;20027;-77
2023/12/27 00:04:03;;;;;;;3.35;1.88;;;14.30;99.90;;;;;;4596456;19;20002;-77
2023/12/27 00:05:37;;;;;;;4.28;2.10;;;14.30;99.90;;;;;;4595175;19;20022;-77
2023/12/27 00:07:12;;;;;;;5.85;2.20;;;14.30;99.90;;;;;;4596205;19;20010;-77
2023/12/27 00:08:47;;;;;;;3.85;2.15;;;14.30;99.90;;;;;;4596118;19;20003;-77
2023/12/27 00:10:21;;;;;;;3.95;2.80;;;14.30;99.90;;;;;;4594354;19;20330;-77
2023/12/27 00:11:56;;;;;;;4.18;2.40;;;14.30;99.90;;;;;;4596050;19;20065;-77
2023/12/27 00:13:31;;;;;;;5.65;2.10;;;14.20;99.90;;;;;;4596255;19;20005;-77
2023/12/27 00:15:06;;;;;;;5.97;3.20;;;14.20;99.90;;;;;;4595818;19;20006;-77
2023/12/27 00:16:42;;;;;;;4.22;2.40;;;14.20;99.90;;;;;;4596287;19;20029;-77
2023/12/27 00:18:17;;;;;;;5.72;2.20;;;14.20;99.90;;;;;;4595807;19;20007;-77
2023/12/27 00:19:53;;;;;;;4.72;2.45;;;14.20;99.90;;;;;;4595875;19;20014;-77
2023/12/27 00:21:30;;;;;;;4.68;1.95;;;14.20;99.90;;;;;;4596169;19;20073;-77
2023/12/27 00:23:04;;;;;;;3.08;1.75;;;14.20;99.90;;;;;;4596055;19;20010;-77
2023/12/27 00:24:39;;;;;;;5.85;2.97;;;14.20;99.90;;;;;;4595844;19;20005;-77
2023/12/27 00:26:14;;;;;;;6.50;2.90;;;14.20;99.90;;;;;;4594711;19;20283;-77
2023/12/27 00:27:48;;;;;;;8.00;4.32;;;14.20;99.90;;;;;;4594625;19;20013;-77
2023/12/27 00:29:23;;;;;;;3.15;1.55;;;14.20;99.90;;;;;;4595361;19;20006;-77
2023/12/27 00:30:59;;;;;;;3.15;1.45;;;14.20;99.90;;;;;;4594726;19;20028;-77
2023/12/27 00:32:33;;;;;;;2.40;1.50;;;14.20;99.90;;;;;;4595840;19;20321;-77
2023/12/27 00:34:07;;;;;;;3.10;1.65;;;14.20;99.90;;;;;;4595617;19;20003;-77
2023/12/27 00:35:43;;;;;;;2.85;1.30;;;14.20;99.90;;;;;;4594881;19;20010;-77
2023/12/27 00:37:17;;;;;;;3.58;2.00;;;14.20;99.90;;;;;;4595811;19;19998;-77
2023/12/27 00:38:52;;;;;;;2.60;1.55;;;14.20;99.90;;;;;;4595768;19;20417;-77
2023/12/27 00:40:27;;;;;;;3.05;1.33;;;14.20;99.90;;;;;;4595540;19;20013;-77
2023/12/27 00:42:01;;;;;;;3.25;1.10;;;14.10;99.90;;;;;;4595715;19;20002;-77
2023/12/27 00:43:35;;;;;;;2.58;1.13;;;14.10;99.90;;;;;;4595388;19;20014;-77
2023/12/27 00:45:11;;;;;;;4.13;1.40;;;14.20;99.90;;;;;;4595950;19;20065;-77
2023/12/27 00:46:46;;;;;;;3.90;1.80;;;14.20;99.90;;;;;;4595285;19;20433;-77
2023/12/27 00:48:21;;;;;;;4.97;2.20;;;14.20;99.90;;;;;;4595582;19;20002;-77
2023/12/27 00:49:57;;;;;;;3.28;1.52;;;14.20;99.90;;;;;;4595325;19;20070;-77
2023/12/27 00:51:31;;;;;;;3.65;1.33;;;14.20;99.90;;;;;;4592662;19;20449;-77
2023/12/27 00:53:05;;;;;;;5.60;1.88;;;14.20;99.90;;;;;;4594748;19;20343;-77
2023/12/27 00:54:40;;;;;;;4.10;1.60;;;14.20;99.90;;;;;;4595265;19;20007;-77
2023/12/27 00:56:14;;;;;;;4.00;1.40;;;14.20;99.90;;;;;;4592768;19;20006;-77
2023/12/27 00:57:48;;;;;;;3.53;1.42;;;14.20;99.90;;;;;;4593819;19;20003;-77
2023/12/27 00:59:23;;;;;;;2.17;1.25;;;14.20;99.90;;;;;;4594721;19;20002;-77
2023/12/27 01:16:38;;;;;;;5.43;3.00;;;14.10;99.90;;;;;;4575518;19;20032;-77
2023/12/27 01:18:13;;;;;;;6.47;3.78;;;14.10;99.80;;;;;;4594514;19;20074;-76
2023/12/27 01:19:47;;;;;;;5.00;2.70;;;14.10;99.80;;;;;;4594737;19;20443;-76
2023/12/27 01:21:22;;;;;;;6.85;2.95;;;14.10;99.90;;;;;;4594617;19;20002;-76
2023/12/27 01:22:57;;;;;;;7.43;3.35;;;14.10;99.90;;;;;;4594736;19;20006;-76
2023/12/27 01:24:31;;;;;;;4.95;1.85;;;14.10;99.80;;;;;;4594878;19;20002;-76
2023/12/27 01:26:05;;;;;;;6.40;3.10;;;14.10;99.80;;;;;;4592825;19;20002;-76
2023/12/27 01:27:41;;;;;;;3.17;1.98;;;14.10;99.80;;;;;;4594231;19;19999;-76
2023/12/27 01:29:15;;;;;;;6.43;1.95;;;14.10;99.70;;;;;;4594535;19;19998;-76
2023/12/27 01:30:50;;;;;;;3.30;1.70;;;14.10;99.60;;;;;;4593791;19;20061;-76
2023/12/27 01:32:25;;;;;;;4.30;1.45;;;14.20;99.60;;;;;;4594493;19;20013;-76
2023/12/27 01:34:00;;;;;;;4.38;1.65;;;14.10;99.50;;;;;;4594419;19;20425;-76
2023/12/27 01:35:34;;;;;;;3.85;1.50;;;14.10;99.50;;;;;;4593038;19;20317;-76
2023/12/27 01:37:09;;;;;;;3.90;1.50;;;14.10;99.50;;;;;;4593057;19;20007;-76
2023/12/27 01:38:43;;;;;;;4.95;1.63;;;14.10;99.60;;;;;;4594276;19;20006;-76
2023/12/27 01:40:19;;;;;;;6.32;1.67;;;14.10;99.60;;;;;;4594284;19;20003;-76
2023/12/27 01:41:54;;;;;;;4.07;1.63;;;14.10;99.60;;;;;;4594359;19;20011;-76
2023/12/27 01:43:28;;;;;;;5.07;1.45;;;14.10;99.60;;;;;;4594492;19;20006;-76
2023/12/27 01:45:02;;;;;;;4.00;1.70;;;14.10;99.50;;;;;;4594147;19;20010;-76
2023/12/27 01:46:40;;;;;;;4.57;1.63;;;14.10;99.70;;;;;;4593234;19;20421;-76
2023/12/27 01:48:15;;;;;;;3.15;1.30;;;14.20;99.60;;;;;;4594162;19;20021;-76
2023/12/27 01:49:49;;;;;;;5.30;2.00;;;14.10;99.60;;;;;;4592960;19;20006;-76
2023/12/27 01:51:26;;;;;;;4.05;1.60;;;14.10;99.70;;;;;;4592672;19;20062;-76
2023/12/27 01:53:00;;;;;;;6.63;2.03;;;14.00;99.70;;;;;;4592678;19;19998;-76
2023/12/27 01:54:34;;;;;;;2.97;1.23;;;14.10;99.80;;;;;;4593625;19;20010;-76
2023/12/27 01:56:09;;;;;;;3.22;1.20;;;14.10;99.90;;;;;;4593984;19;20012;-76
2023/12/27 01:57:44;;;;;;;5.50;1.30;;;14.10;99.80;;;;;;4592438;19;20026;-76
2023/12/27 01:59:22;;;;;;;4.70;2.17;;;14.10;99.90;;;;;;4593395;19;20021;-76
2023/12/27 02:00:57;;;;;;;4.07;1.42;;;14.10;99.90;;;;;;4593860;19;20015;-76
2023/12/27 02:02:31;;;;;;;3.63;1.10;;;14.10;99.90;;;;;;4593760;19;20322;-76
2023/12/27 02:04:06;;;;;;;2.80;1.45;;;14.10;99.90;;;;;;4594088;19;20002;-76
2023/12/27 02:05:42;;;;;;;4.32;1.45;;;14.10;99.90;;;;;;4593795;19;20006;-76
2023/12/27 02:07:16;;;;;;;3.15;1.35;;;14.00;99.90;;;;;;4593713;19;20030;-76
2023/12/27 02:08:50;;;;;;;3.08;1.35;;;14.00;99.90;;;;;;4593879;19;20025;-76
2023/12/27 02:10:27;;;;;;;3.72;1.63;;;14.00;99.90;;;;;;4594188;19;20024;-76
2023/12/27 02:12:00;;;;;;;4.60;1.00;;;14.10;99.90;;;;;;4592583;19;20003;-76
2023/12/27 02:13:34;;;;;;;2.42;1.02;;;14.00;99.90;;;;;;4593213;19;20010;-76
2023/12/27 02:15:09;;;;;;;4.38;1.40;;;14.10;99.90;;;;;;4592472;19;20086;-76
2023/12/27 02:16:44;;;;;;;4.32;1.40;;;14.10;99.90;;;;;;4592101;19;20111;-76
2023/12/27 02:18:18;;;;;;;3.00;1.17;;;14.10;99.90;;;;;;4592417;19;20007;-76
2023/12/27 02:19:54;;;;;;;2.92;1.38;;;14.10;99.90;;;;;;4593176;19;20084;-76
2023/12/27 02:21:28;;;;;;;3.38;1.42;;;14.10;99.90;;;;;;4592301;19;20002;-76
2023/12/27 02:23:03;;;;;;;6.40;1.60;;;14.10;99.90;;;;;;4593398;19;20299;-76
2023/12/27 02:24:39;;;;;;;5.80;1.92;;;14.10;99.90;;;;;;4592053;19;20002;-76
2023/12/27 02:26:13;;;;;;;3.20;1.33;;;14.10;99.90;;;;;;4588800;19;20058;-76
2023/12/27 02:27:46;;;;;;;3.92;1.40;;;14.10;99.90;;;;;;4591944;19;20010;-76
2023/12/27 02:29:23;;;;;;;4.60;1.33;;;14.10;99.90;;;;;;4592989;19;20023;-76
2023/12/27 02:30:57;;;;;;;2.58;0.88;;;14.10;99.90;;;;;;4592863;19;20009;-76
2023/12/27 02:32:32;;;;;;;6.72;1.98;;;14.10;99.90;;;;;;4593192;19;20003;-76
2023/12/27 02:34:09;;;;;;;4.50;2.08;;;14.10;99.90;;;;;;4593186;19;20433;-76
2023/12/27 02:35:43;;;;;;;5.50;2.08;;;14.10;99.90;;;;;;4592978;19;20003;-76
2023/12/27 02:37:17;;;;;;;5.15;1.60;;;14.10;99.90;;;;;;4591863;19;20015;-76
2023/12/27 02:38:53;;;;;;;5.78;1.80;;;14.10;99.90;;;;;;4592711;19;20038;-76
2023/12/27 02:40:27;;;;;;;5.28;1.77;;;14.00;99.90;;;;;;4593334;19;20002;-76
2023/12/27 02:42:01;;;;;;;5.60;1.27;;;14.10;99.90;;;;;;4593049;19;19995;-76
2023/12/27 02:43:37;;;;;;;4.07;1.60;;;14.10;99.90;;;;;;4593017;19;20006;-76
2023/12/27 02:45:12;;;;;;;4.63;1.60;;;14.10;99.90;;;;;;4592978;19;20020;-76
2023/12/27 02:46:48;;;;;;;3.75;1.20;;;14.10;99.80;;;;;;4590793;19;20007;-76
2023/12/27 02:48:23;;;;;;;3.15;1.30;;;14.00;99.70;;;;;;4592706;19;20033;-76
2023/12/27 02:49:57;;;;;;;4.75;1.65;;;14.00;99.80;;;;;;4592874;19;20294;-76
2023/12/27 02:51:33;;;;;;;4.72;1.63;;;14.10;99.70;;;;;;4590343;19;20313;-76
2023/12/27 02:53:09;;;;;;;5.97;1.85;;;14.00;99.70;;;;;;4592477;19;20070;-76
2023/12/27 02:54:43;;;;;;;3.80;1.55;;;14.00;99.70;;;;;;4591757;19;20007;-76
2023/12/27 02:56:18;;;;;;;5.68;2.45;;;14.00;99.70;;;;;;4591773;19;20011;-76
2023/12/27 02:57:56;;;;;;;8.55;4.47;;;14.00;99.60;;;;;;4592732;19;20031;-76
2023/12/27 02:59:31;;;;;;;8.27;3.63;;;14.00;99.60;;;;;;4593049;19;20022;-76
2023/12/27 03:01:05;;;;;;;7.05;2.47;;;14.00;99.60;;;;;;4591577;19;20447;-76
2023/12/27 03:02:41;;;;;;;3.17;1.20;;;14.00;99.50;;;;;;4591299;19;20053;-76
2023/12/27 03:04:15;;;;;;;5.07;1.65;;;14.00;99.50;;;;;;4592498;19;20393;-76
2023/12/27 03:05:50;;;;;;;4.28;1.77;;;14.00;99.60;;;;;;4592342;19;20006;-76
2023/12/27 03:07:25;;;;;;;4.40;1.10;;;14.00;99.60;;;;;;4592621;19;20015;-76
2023/12/27 03:08:59;;;;;;;3.95;1.23;;;14.00;99.60;;;;;;4591411;19;20007;-76
2023/12/27 03:10:33;;;;;;;4.95;1.80;;;14.00;99.60;;;;;;4591789;19;20007;-76
2023/12/27 03:12:09;;;;;;;4.97;1.90;;;14.00;99.50;;;;;;4592493;19;20006;-76
2023/12/27 03:13:43;;;;;;;5.35;2.00;;;14.00;99.60;;;;;;4592454;19;19999;-76
2023/12/27 03:15:18;;;;;;;4.60;1.67;;;14.00;99.60;;;;;;4592661;19;20085;-76
2023/12/27 03:16:54;;;;;;;4.85;1.17;;;14.00;99.60;;;;;;4589921;19;20017;-76
2023/12/27 03:18:29;;;;;;;4.68;1.50;;;14.00;99.70;;;;;;4592251;19;20002;-76
2023/12/27 03:20:03;;;;;;;2.72;1.42;;;14.00;99.60;;;;;;4592308;19;20007;-76
2023/12/27 03:21:38;;;;;;;4.43;1.10;;;14.00;99.70;;;;;;4592376;19;20005;-76
2023/12/27 03:23:13;;;;;;;3.88;1.27;;;14.00;99.70;;;;;;4592291;19;20003;-76
2023/12/27 03:24:49;;;;;;;5.60;1.63;;;14.00;99.70;;;;;;4592449;19;20070;-76
2023/12/27 03:26:24;;;;;;;5.65;1.65;;;14.00;99.70;;;;;;4591695;19;20011;-76
2023/12/27 03:27:59;;;;;;;3.13;1.20;;;14.00;99.90;;;;;;4592096;19;20009;-76
2023/12/27 03:29:33;;;;;;;6.17;1.20;;;14.00;99.70;;;;;;4592030;19;20445;-76
2023/12/27 03:31:09;;;;;;;3.63;1.23;;;14.00;99.60;;;;;;4591335;19;20029;-76
2023/12/27 03:32:43;;;;;;;3.70;1.80;;;14.00;99.70;;;;;;4592341;19;20013;-76
2023/12/27 03:34:47;;;;;;;4.47;1.42;;;14.10;99.60;;;;;;4592057;19;20005;-76
2023/12/27 03:36:22;;;;;;;3.10;1.40;;;14.10;99.70;;;;;;4588989;19;20014;-76
2023/12/27 03:37:57;;;;;;;3.40;1.00;;;14.10;99.60;;;;;;4593551;19;20025;-76
2023/12/27 03:39:32;;;;;;;7.07;1.38;;;14.10;99.70;;;;;;4596740;19;20003;-76
2023/12/27 03:41:10;;;;;;;4.32;1.10;;;14.10;99.60;;;;;;4596781;19;20013;-76
2023/12/27 03:42:44;;;;;;;5.38;1.60;;;14.00;99.60;;;;;;4597057;19;20290;-76
2023/12/27 03:44:19;;;;;;;3.45;1.20;;;14.10;99.90;;;;;;4596937;19;20022;-76
2023/12/27 03:45:54;;;;;;;2.50;0.95;;;14.00;99.60;;;;;;4596479;19;20005;-76
2023/12/27 03:47:29;;;;;;;4.35;1.85;;;14.00;99.60;;;;;;4596802;19;20006;-76
2023/12/27 03:49:03;;;;;;;3.97;1.48;;;14.10;99.60;;;;;;4596865;19;20069;-77
2023/12/27 03:50:38;;;;;;;5.40;1.60;;;14.10;99.70;;;;;;4596051;19;20007;-76
2023/12/27 03:52:12;;;;;;;8.07;2.55;;;14.10;99.60;;;;;;4596499;19;20003;-76
2023/12/27 03:53:46;;;;;;;5.60;1.30;;;14.10;99.40;;;;;;4596430;19;20426;-82
2023/12/27 03:55:25;;;;;;;4.72;1.50;;;14.10;99.40;;;;;;4597200;19;20002;-78
2023/12/27 03:56:59;;;;;;;4.43;1.50;;;14.20;99.50;;;;;;4593745;19;20021;-76
2023/12/27 03:58:34;;;;;;;4.82;1.33;;;14.20;99.40;;;;;;4596030;19;20006;-77
2023/12/27 04:00:12;;;;;;;3.92;1.58;;;14.20;99.30;;;;;;4596421;19;20023;-77
2023/12/27 04:01:49;;;;;;;5.30;1.75;;;14.20;99.10;;;;;;4596345;19;20005;-77
2023/12/27 04:03:24;;;;;;;5.68;1.25;;;14.30;99.90;;;;;;4596155;19;20488;-77
2023/12/27 04:04:58;;;;;;;4.13;1.42;;;14.30;99.10;;;;;;4596147;19;20007;-77
2023/12/27 04:06:34;;;;;;;5.80;1.88;;;14.30;99.10;;;;;;4595189;19;19998;-77
2023/12/27 04:08:09;;;;;;;5.10;1.45;;;14.30;99.20;;;;;;4595999;19;20007;-77
2023/12/27 04:09:43;;;;;;;4.13;1.80;;;14.30;99.10;;;;;;4595909;19;19999;-77
2023/12/27 04:11:18;;;;;;;3.97;1.30;;;14.30;98.90;;;;;;4594817;19;20002;-77
2023/12/27 04:12:52;;;;;;;3.88;1.30;;;14.30;99.20;;;;;;4596077;19;20063;-77
2023/12/27 04:14:26;;;;;;;4.45;1.23;;;14.40;99.00;;;;;;4596295;19;20418;-77
2023/12/27 04:16:02;;;;;;;6.60;1.50;;;14.40;98.90;;;;;;4595270;19;20089;-77
2023/12/27 04:17:37;;;;;;;5.72;1.50;;;14.40;99.10;;;;;;4596387;19;20006;-77
2023/12/27 04:19:11;;;;;;;4.22;1.58;;;14.30;98.80;;;;;;4596274;19;19998;-77
2023/12/27 04:20:46;;;;;;;7.32;1.95;;;14.30;98.60;;;;;;4596399;19;20028;-77
2023/12/27 04:22:20;;;;;;;4.15;1.65;;;14.40;98.80;;;;;;4595825;19;20018;-77
2023/12/27 04:23:54;;;;;;;5.18;1.70;;;14.40;99.40;;;;;;4595930;19;20003;-77
2023/12/27 04:25:30;;;;;;;2.38;1.00;;;14.40;98.70;;;;;;4595842;19;20006;-78
2023/12/27 04:27:05;;;;;;;4.53;1.20;;;14.40;98.50;;;;;;4594159;19;20313;-77
2023/12/27 04:28:38;;;;;;;4.65;1.45;;;14.40;98.50;;;;;;4595699;19;20105;-78
2023/12/27 04:30:13;;;;;;;5.40;1.95;;;14.50;98.70;;;;;;4596255;19;20014;-78
2023/12/27 04:31:49;;;;;;;4.80;1.50;;;14.40;98.30;;;;;;4594004;19;20150;-77
2023/12/27 04:33:22;;;;;;;2.35;1.08;;;14.40;98.50;;;;;;4595944;19;20007;-79
2023/12/27 04:34:58;;;;;;;4.32;1.42;;;14.50;98.30;;;;;;4595616;19;20046;-78
2023/12/27 04:36:35;;;;;;;4.13;1.13;;;14.50;98.10;;;;;;4594830;19;20298;-79
2023/12/27 04:38:13;;;;;;;5.47;1.60;;;14.50;98.10;;;;;;4594187;19;20010;-77
2023/12/27 04:39:49;;;;;;;4.70;1.55;;;14.60;98.30;;;;;;4594354;19;20007;-78
2023/12/27 04:41:24;;;;;;;5.60;1.60;;;14.60;98.10;;;;;;4595167;19;20040;-78
2023/12/27 04:42:59;;;;;;;3.50;1.20;;;14.60;98.10;;;;;;4595496;19;20322;-78
2023/12/27 04:44:34;;;;;;;6.07;1.73;;;14.60;97.90;;;;;;4595763;19;20033;-78
2023/12/27 04:46:08;;;;;;;5.50;1.38;;;14.70;97.90;;;;;;4593769;19;20007;-79
2023/12/27 04:47:42;;;;;;;5.95;2.00;;;14.80;97.80;;;;;;4595335;19;20009;-78
2023/12/27 04:49:17;;;;;;;5.20;1.20;;;14.90;97.60;;;;;;4593057;19;20020;-78
2023/12/27 04:50:53;;;;;;;4.45;1.45;;;14.90;97.60;;;;;;4594674;19;19995;-78
2023/12/27 04:52:27;;;;;;;4.68;1.52;;;15.00;97.60;;;;;;4595568;19;20021;-78
2023/12/27 04:54:03;;;;;;;6.95;1.90;;;15.20;98.30;;;;;;4593879;19;20002;-78
2023/12/27 04:55:38;;;;;;;3.28;1.20;;;15.40;97.30;;;;;;4593794;19;20006;-79
2023/12/27 04:57:13;;;;;;;4.50;1.30;;;15.40;97.00;;;;;;4594919;19;20005;-78
2023/12/27 04:58:48;;;;;;;3.22;1.52;;;15.50;96.80;;;;;;4595241;19;20015;-78
2023/12/27 05:00:27;;;;;;;4.65;1.60;;;15.60;96.90;;;;;;4593832;19;20101;-78
2023/12/27 05:02:02;;;;;;;3.40;1.30;;;15.60;96.80;;;;;;4594973;19;20428;-79
2023/12/27 05:03:44;;;;;;;5.40;1.60;;;15.70;96.80;;;;;;4595166;19;20006;-76
2023/12/27 05:05:18;;;;;;;8.38;1.77;;;15.70;96.70;;;;;;4595414;19;20006;-77
2023/12/27 05:06:52;;;;;;;4.18;1.90;;;15.70;96.70;;;;;;4593698;19;20006;-76
2023/12/27 05:08:28;;;;;;;3.13;1.30;;;15.80;96.80;;;;;;4595052;19;20070;-77
2023/12/27 05:10:03;;;;;;;4.32;1.67;;;15.70;96.60;;;;;;4594952;19;20006;-77
2023/12/27 05:11:36;;;;;;;5.45;1.50;;;15.70;96.70;;;;;;4593810;19;20295;-79
2023/12/27 05:13:12;;;;;;;2.78;0.98;;;15.70;96.70;;;;;;4594948;19;20002;-79
2023/12/27 05:14:46;;;;;;;4.75;1.50;;;15.70;96.90;;;;;;4593553;19;20066;-77
2023/12/27 05:16:21;;;;;;;4.47;1.70;;;15.70;96.80;;;;;;4593662;19;20011;-77
2023/12/27 05:17:57;;;;;;;4.85;1.63;;;15.70;96.70;;;;;;4595048;19;19998;-74
2023/12/27 05:19:32;;;;;;;3.08;1.45;;;15.60;96.70;;;;;;4594758;19;19998;-74
2023/12/27 05:21:07;;;;;;;5.25;1.58;;;15.60;96.60;;;;;;4594961;19;20006;-82
2023/12/27 05:22:44;;;;;;;10.70;3.17;;;15.60;96.80;;;;;;4595038;19;20283;-76
2023/12/27 05:24:20;;;;;;;3.25;1.13;;;15.70;99.90;;;;;;4594981;19;20013;-76
2023/12/27 05:25:54;;;;;;;4.05;1.80;;;15.90;97.40;;;;;;4594336;19;20066;-77
2023/12/27 05:27:29;;;;;;;6.45;2.75;;;15.80;98.00;;;;;;4593148;19;20027;-76
2023/12/27 05:29:03;;;;;;;5.18;1.65;;;15.80;96.90;;;;;;4594144;19;20002;-76
2023/12/27 05:30:38;;;;;;;4.88;1.73;;;15.70;96.80;;;;;;4594085;19;20028;-76
2023/12/27 05:32:14;;;;;;;4.53;1.73;;;15.60;96.80;;;;;;4594775;19;20020;-76
2023/12/27 05:33:49;;;;;;;5.38;1.85;;;15.50;96.80;;;;;;4594433;19;20425;-77
2023/12/27 05:35:23;;;;;;;6.45;1.98;;;15.50;96.70;;;;;;4594474;19;20007;-76
2023/12/27 05:36:59;;;;;;;6.13;2.00;;;15.40;96.80;;;;;;4593462;19;20486;-76
2023/12/27 05:38:32;;;;;;;4.78;1.88;;;15.40;96.80;;;;;;4594578;19;20453;-77
2023/12/27 05:40:07;;;;;;;4.63;2.00;;;15.30;96.80;;;;;;4594300;19;20024;-76
2023/12/27 05:41:42;;;;;;;6.80;2.35;;;15.30;96.90;;;;;;4594312;19;20011;-76
2023/12/27 05:43:16;;;;;;;5.65;2.58;;;15.30;96.90;;;;;;4592882;19;20010;-76
2023/12/27 05:44:51;;;;;;;4.35;1.60;;;15.20;96.90;;;;;;4593743;19;20007;-76
2023/12/27 05:46:28;;;;;;;5.43;1.67;;;15.20;96.90;;;;;;4592126;19;20039;-76
2023/12/27 05:48:02;;;;;;;5.72;2.05;;;15.10;96.90;;;;;;4594078;19;20003;-76
2023/12/27 05:49:36;;;;;;;5.18;1.77;;;15.10;97.20;;;;;;4594130;19;20003;-76
2023/12/27 05:51:13;;;;;;;4.93;1.88;;;15.10;97.10;;;;;;4593359;19;20108;-76
2023/12/27 05:52:48;;;;;;;5.95;2.03;;;15.10;97.00;;;;;;4594061;19;19998;-76
2023/12/27 05:54:21;;;;;;;4.55;1.85;;;15.00;97.00;;;;;;4594268;19;20007;-76
2023/12/27 05:55:57;;;;;;;5.63;2.40;;;15.00;97.00;;;;;;4593927;19;20002;-76
2023/12/27 05:57:31;;;;;;;6.13;2.30;;;15.00;97.20;;;;;;4594200;19;20011;-76
2023/12/27 05:59:06;;;;;;;8.13;2.67;;;15.00;97.20;;;;;;4593871;19;20019;-76
2023/12/27 06:00:44;;;;;;;7.78;1.95;;;14.90;97.10;;;;;;4593641;19;20023;-76
2023/12/27 06:02:18;;;;;;;4.78;2.35;;;14.90;97.20;;;;;;4594127;19;20003;-76
2023/12/27 06:03:53;;;;;;;4.25;1.70;;;14.90;97.10;;;;;;4593771;19;20002;-76
2023/12/27 06:05:30;;;;;;;6.72;1.80;;;14.90;97.20;;;;;;4593696;19;20040;-76
2023/12/27 06:07:04;;;;;;;5.85;2.08;;;14.80;97.20;;;;;;4592734;19;20009;-76
2023/12/27 06:08:38;;;;;;;6.38;2.10;;;14.80;97.20;;;;;;4592620;19;20009;-76
2023/12/27 06:10:14;;;;;;;5.47;1.85;;;14.80;97.20;;;;;;4593664;19;20441;-76
2023/12/27 06:11:49;;;;;;;4.80;1.75;;;14.80;97.20;;;;;;4592757;19;20002;-76
2023/12/27 06:13:23;;;;;;;6.80;1.92;;;14.70;97.20;;;;;;4593896;19;20493;-76
2023/12/27 06:14:58;;;;;;;4.05;1.50;;;14.70;97.30;;;;;;4594287;19;20002;-76
2023/12/27 06:16:33;;;;;;;6.18;2.10;;;14.70;97.30;;;;;;4592568;19;20014;-76
2023/12/27 06:18:06;;;;;;;6.05;1.63;;;14.70;97.30;;;;;;4593508;19;19995;-76
2023/12/27 06:19:41;;;;;;;5.55;2.05;;;14.70;97.30;;;;;;4593471;19;20003;-76
2023/12/27 06:21:16;;;;;;;5.97;1.65;;;14.70;97.30;;;;;;4593436;19;20009;-76
2023/12/27 06:22:51;;;;;;;5.78;1.90;;;14.70;97.30;;;;;;4593668;19;20009;-76
2023/12/27 06:24:26;;;;;;;6.18;2.03;;;14.70;97.40;;;;;;4593383;19;20006;-76
2023/12/27 06:26:01;;;;;;;5.72;1.70;;;14.60;97.30;;;;;;4592979;19;20014;-76
2023/12/27 06:27:35;;;;;;;7.00;1.77;;;14.60;97.30;;;;;;4593290;19;20312;-74
2023/12/27 06:29:12;;;;;;;6.30;1.90;;;14.60;99.90;;;;;;4593577;19;20007;-76
2023/12/27 06:30:45;;;;;;;6.22;2.65;;;14.70;97.70;;;;;;4593204;19;20013;-76
2023/12/27 06:32:22;;;;;;;6.15;1.83;;;14.70;97.50;;;;;;4593466;19;20002;-76
2023/12/27 06:33:58;;;;;;;5.32;1.98;;;14.60;97.40;;;;;;4593205;19;20023;-76
2023/12/27 06:35:32;;;;;;;5.45;1.90;;;14.60;97.40;;;;;;4593102;19;20010;-76
2023/12/27 06:37:07;;;;;;;7.15;2.85;;;14.60;97.40;;;;;;4591872;19;20013;-76
2023/12/27 06:38:46;;;;;;;6.40;2.63;;;14.60;97.70;;;;;;4591845;19;20003;-76
2023/12/27 06:40:22;;;;;;;7.30;2.70;;;14.60;97.50;;;;;;4591709;19;20007;-76
2023/12/27 06:41:58;;;;;;;6.13;2.15;;;14.60;97.50;;;;;;4592632;19;20006;-80
2023/12/27 06:43:34;;;;;;;6.25;2.15;;;14.60;97.40;;;;;;4593360;19;20017;-75
2023/12/27 06:45:09;;;;;;;6.20;2.00;;;14.50;97.30;;;;;;4592909;19;20298;-76
2023/12/27 06:46:43;;;;;;;7.70;2.15;;;14.50;97.40;;;;;;4590636;19;20453;-76
2023/12/27 06:48:19;;;;;;;5.15;1.73;;;14.50;97.30;;;;;;4592549;19;20010;-76
2023/12/27 06:49:52;;;;;;;5.95;2.40;;;14.50;97.30;;;;;;4592876;19;20469;-76
2023/12/27 06:51:26;;;;;;;9.48;3.03;;;14.50;97.30;;;;;;4592282;19;20003;-76
2023/12/27 06:53:03;;;;;;;6.18;1.80;;;14.50;97.30;;;;;;4592868;19;20007;-76
2023/12/27 06:54:38;;;;;;;7.15;2.63;;;14.50;97.40;;;;;;4592695;19;20009;-76
2023/12/27 06:56:14;;;;;;;6.68;2.00;;;14.50;97.40;;;;;;4592568;19;20002;-73
2023/12/27 06:57:51;;;;;;;6.55;2.30;;;14.50;97.40;;;;;;4592791;19;20005;-74
2023/12/27 06:59:26;;;;;;;7.20;2.53;;;14.60;97.40;;;;;;4592918;19;20025;-74
2023/12/27 07:01:00;;;;;;;7.65;2.75;;;14.60;97.30;;;;;;4592690;19;20033;-73
2023/12/27 07:02:38;;;;;;;8.57;3.25;;;14.60;97.30;;;;;;4592946;19;20491;-74
2023/12/27 07:04:14;;;;;;;9.65;3.50;;;14.60;97.20;;;;;;4592450;19;20010;-75
2023/12/27 07:05:48;;;;;;;8.98;3.35;;;14.60;97.10;;;;;;4591034;19;20014;-75
2023/12/27 07:07:24;;;;;;;7.45;2.60;;;14.60;97.00;;;;;;4592471;19;20010;-75
2023/12/27 07:08:59;;;;;;;7.90;2.30;;;14.70;97.10;;;;;;4592505;19;19999;-74
2023/12/27 07:10:33;;;;;;;7.47;2.97;;;14.70;97.20;;;;;;4592538;19;20024;-74
2023/12/27 07:12:09;;;;;;;6.20;2.55;;;14.70;97.10;;;;;;4591218;19;20028;-74
2023/12/27 07:13:44;;;;;;;6.80;2.28;;;14.70;97.00;;;;;;4592549;19;20010;-73
2023/12/27 07:15:17;;;;;;;5.75;2.58;;;14.70;97.00;;;;;;4592192;19;20088;-75
2023/12/27 07:16:53;;;;;;;6.35;2.60;;;14.70;97.10;;;;;;4591225;19;20434;-76
2023/12/27 07:18:27;;;;;;;7.82;2.35;;;14.70;97.00;;;;;;4592165;19;20014;-76
2023/12/27 07:20:02;;;;;;;6.20;2.00;;;14.70;97.10;;;;;;4592255;19;20070;-75
2023/12/27 07:21:38;;;;;;;5.53;2.35;;;14.60;97.00;;;;;;4592285;19;20453;-75
2023/12/27 07:23:12;;;;;;;5.05;2.42;;;14.60;97.20;;;;;;4592123;19;20006;-75
2023/12/27 07:24:48;;;;;;;4.88;2.67;;;14.60;96.90;;;;;;4592465;19;20010;-76
2023/12/27 07:26:23;;;;;;;6.50;2.20;;;14.60;97.00;;;;;;4590464;19;20046;-76
2023/12/27 07:27:57;;;;;;;6.65;2.50;;;14.60;97.00;;;;;;4591869;19;20002;-76
2023/12/27 07:29:50;;;;;;;9.52;2.85;;;14.60;97.00;;;;;;4592641;19;20033;-76
2023/12/27 07:31:39;;;;;;;6.75;2.25;;;14.60;97.00;;;;;;4592905;19;20031;-74
2023/12/27 07:33:24;;;;;;;5.50;2.42;;;14.60;97.00;;;;;;4593760;19;20015;-73
2023/12/27 07:35:09;;;;;;;9.60;2.72;;;14.60;97.10;;;;;;4592579;19;20018;-73
2023/12/27 07:37:03;;;;;;;5.82;2.70;;;14.60;97.10;;;;;;4591642;19;20015;-77
2023/12/27 07:38:38;;;;;;;6.28;2.50;;;14.60;97.00;;;;;;4592199;19;20020;-75
2023/12/27 07:40:17;;;;;;;6.60;2.72;;;14.60;96.90;;;;;;4591339;19;20035;-74
2023/12/27 07:41:52;;;;;;;8.27;2.47;;;14.60;97.20;;;;;;4593967;19;20010;-74
2023/12/27 07:43:28;;;;;;;6.00;2.42;;;14.50;96.90;;;;;;4590696;19;20453;-76
2023/12/27 07:45:03;;;;;;;5.55;2.30;;;14.50;96.90;;;;;;4590823;19;20003;-75
2023/12/27 07:46:37;;;;;;;9.85;3.05;;;14.50;97.00;;;;;;4590958;19;20014;-75
2023/12/27 07:48:12;;;;;;;7.05;2.42;;;14.50;97.00;;;;;;4591985;19;20325;-77
2023/12/27 07:49:46;;;;;;;6.85;3.22;;;14.50;97.00;;;;;;4591939;19;20003;-76
2023/12/27 07:51:20;;;;;;;7.07;3.35;;;14.50;97.00;;;;;;4591258;19;20032;-76
2023/12/27 07:52:56;;;;;;;6.93;3.05;;;14.50;97.00;;;;;;4591816;19;19998;-75
2023/12/27 07:54:31;;;;;;;7.60;2.67;;;14.50;97.10;;;;;;4591592;19;20010;-76
2023/12/27 07:56:12;;;;;;;7.85;2.95;;;14.50;97.10;;;;;;4591161;19;20006;-75
2023/12/27 07:57:48;;;;;;;6.55;2.78;;;14.60;97.10;;;;;;4590632;19;20014;-75
2023/12/27 07:59:22;;;;;;;7.03;2.97;;;14.50;97.10;;;;;;4591338;19;20002;-74
2023/12/27 08:00:56;;;;;;;11.45;3.88;;;14.60;97.00;;;;;;4591870;19;20011;-75
2023/12/27 08:02:32;;;;;;;9.25;3.75;;;14.50;97.00;;;;;;4591552;19;20429;-75
2023/12/27 08:04:09;;;;;;;9.38;2.63;;;14.60;97.10;;;;;;4591330;19;20078;-74
2023/12/27 08:05:44;;;;;;;13.18;5.68;;;14.50;97.10;;;;;;4591231;19;20011;-75
2023/12/27 08:07:19;;;;;;;9.85;3.55;;;14.60;97.20;;;;;;4591360;19;20400;-78
2023/12/27 08:08:55;;;;;;;6.43;2.80;;;14.60;97.20;;;;;;4590450;19;20421;-78
2023/12/27 08:10:30;;;;;;;9.65;2.95;;;14.60;97.20;;;;;;4591158;19;20013;-75
2023/12/27 08:12:06;;;;;;;8.77;3.30;;;14.60;97.20;;;;;;4591398;19;20010;-75
2023/12/27 08:13:40;;;;;;;9.77;3.08;;;14.60;97.20;;;;;;4591389;19;20002;-75
2023/12/27 08:15:14;;;;;;;11.40;4.60;;;14.60;97.40;;;;;;4590271;19;20009;-78
2023/12/27 08:16:52;;;;;;;8.88;2.97;;;14.60;97.30;;;;;;4589956;19;20018;-78
2023/12/27 08:18:31;;;;;;;9.38;3.28;;;14.50;97.30;;;;;;4590063;19;20014;-78
2023/12/27 08:20:06;;;;;;;9.18;4.32;;;14.50;97.30;;;;;;4590929;19;20006;-76
2023/12/27 08:21:43;;;;;;;9.60;4.10;;;14.60;97.40;;;;;;4591609;19;20011;-75
2023/12/27 08:23:17;;;;;;;7.22;3.35;;;14.60;97.40;;;;;;4591294;19;19999;-81
2023/12/27 08:24:51;;;;;;;5.85;3.15;;;14.70;97.40;;;;;;4596034;19;20312;-81
2023/12/27 08:26:26;;;;;;;7.50;3.40;;;14.80;97.30;;;;;;4594210;19;20066;-79
2023/12/27 08:28:01;;;;;;;9.88;4.40;;;14.90;97.20;;;;;;4595313;19;20011;-76
2023/12/27 08:29:35;;;;;;;8.68;3.92;;;15.00;97.10;;;;;;4595760;19;20390;-75
2023/12/27 08:31:11;;;;;;;11.73;4.85;;;15.00;97.00;;;;;;4595204;19;20010;-76